createdAt,value
2023-08-05T00:01:03.685Z,13.07
2023-08-05T00:03:31.376Z,11.43
2023-08-05T00:05:58.815Z,11.25
2023-08-05T00:08:26.604Z,10.02
2023-08-05T00:10:54.684Z,18.40
2023-08-05T00:13:22.329Z,10.43
2023-08-05T00:15:50.853Z,11.13
2023-08-05T00:18:18.507Z,9.57
2023-08-05T00:20:45.879Z,10.55
2023-08-05T00:23:13.578Z,8.07
2023-08-05T00:25:41.040Z,11.50
2023-08-05T00:28:08.777Z,6.90
2023-08-05T00:30:36.119Z,7.38
2023-08-05T00:33:03.748Z,9.85
2023-08-05T00:35:31.278Z,7.72
2023-08-05T00:37:58.929Z,7.55
2023-08-05T00:40:26.366Z,9.48
2023-08-05T00:42:54.032Z,10.27
2023-08-05T00:45:21.935Z,7.28
2023-08-05T00:47:49.696Z,7.03
2023-08-05T00:50:17.271Z,9.57
2023-08-05T00:52:45.036Z,6.55
2023-08-05T00:55:12.572Z,9.80
2023-08-05T00:57:40.222Z,11.15
2023-08-05T01:00:08.082Z,6.97
2023-08-05T01:02:35.821Z,7.68
2023-08-05T01:05:03.357Z,7.85
2023-08-05T01:07:31.640Z,10.82
2023-08-05T01:09:59.012Z,8.32
2023-08-05T01:12:26.653Z,13.18
2023-08-05T01:14:54.628Z,11.52
2023-08-05T01:17:22.319Z,8.35
2023-08-05T01:19:49.858Z,7.72
2023-08-05T01:22:42.370Z,10.63
2023-08-05T01:25:28.689Z,10.68
2023-08-05T01:28:00.826Z,9.93
2023-08-05T01:30:28.790Z,10.23
2023-08-05T01:32:57.198Z,7.95
2023-08-05T01:35:25.439Z,9.60
2023-08-05T01:37:53.097Z,7.18
2023-08-05T01:40:20.456Z,7.13
2023-08-05T01:42:48.181Z,9.40
2023-08-05T01:45:15.540Z,8.75
2023-08-05T01:47:43.475Z,12.30
2023-08-05T01:50:11.067Z,13.55
2023-08-05T01:52:38.697Z,10.65
2023-08-05T01:55:06.227Z,11.75
2023-08-05T01:57:33.856Z,11.23
2023-08-05T02:00:01.238Z,9.80
2023-08-05T02:02:29.109Z,13.70
2023-08-05T02:04:56.565Z,8.60
2023-08-05T02:07:24.239Z,9.60
2023-08-05T02:09:51.586Z,10.27
2023-08-05T02:12:19.236Z,10.05
2023-08-05T02:14:46.664Z,6.90
2023-08-05T02:17:14.301Z,8.15
2023-08-05T02:19:41.649Z,10.63
2023-08-05T02:22:09.280Z,9.50
2023-08-05T02:24:36.703Z,7.82
2023-08-05T02:27:04.479Z,8.35
2023-08-05T02:29:31.833Z,11.73
2023-08-05T02:31:59.616Z,6.38
2023-08-05T02:34:26.951Z,7.35
2023-08-05T02:36:54.953Z,6.88
2023-08-05T02:39:22.313Z,7.90
2023-08-05T02:41:49.956Z,7.22
2023-08-05T02:44:17.319Z,6.35
2023-08-05T02:46:45.274Z,8.27
2023-08-05T02:49:12.795Z,9.13
2023-08-05T02:51:40.548Z,12.00
2023-08-05T02:54:08.009Z,7.13
2023-08-05T02:56:35.732Z,7.75
2023-08-05T02:59:03.114Z,8.68
2023-08-05T03:01:31.883Z,10.80
2023-08-05T03:03:59.347Z,7.38
2023-08-05T03:06:26.969Z,16.33
2023-08-05T03:08:54.318Z,10.20
2023-08-05T03:11:22.418Z,10.23
2023-08-05T03:13:49.862Z,9.93
2023-08-05T03:16:17.649Z,6.25
2023-08-05T03:18:45.068Z,8.75
2023-08-05T03:21:12.738Z,8.55
2023-08-05T03:23:40.116Z,8.30
2023-08-05T03:26:07.803Z,10.73
2023-08-05T03:28:35.393Z,14.23
2023-08-05T03:31:03.277Z,6.82
2023-08-05T03:33:31.088Z,8.35
2023-08-05T03:35:58.744Z,7.38
2023-08-05T03:38:26.584Z,11.70
2023-08-05T03:40:54.245Z,9.57
2023-08-05T03:43:21.646Z,12.27
2023-08-05T03:45:52.944Z,9.57
2023-08-05T03:48:20.625Z,10.25
2023-08-05T03:50:48.361Z,13.07
2023-08-05T03:53:15.771Z,12.95
2023-08-05T03:55:43.736Z,9.73
2023-08-05T03:58:12.466Z,8.07
2023-08-05T04:00:44.329Z,7.90
2023-08-05T04:03:11.828Z,14.25
2023-08-05T04:05:41.370Z,8.85
2023-08-05T04:08:08.808Z,9.85
2023-08-05T04:10:38.608Z,8.82
2023-08-05T04:13:05.987Z,11.48
2023-08-05T04:15:36.294Z,5.70
2023-08-05T04:18:04.497Z,9.73
2023-08-05T04:20:35.100Z,9.27
2023-08-05T04:23:02.763Z,8.98
2023-08-05T04:25:32.442Z,12.93
2023-08-05T04:27:59.945Z,14.63
2023-08-05T04:30:27.779Z,9.18
2023-08-05T04:32:55.204Z,14.45
2023-08-05T04:35:22.863Z,8.77
2023-08-05T04:37:50.219Z,12.05
2023-08-05T04:40:18.110Z,5.68
2023-08-05T04:42:46.769Z,6.55
2023-08-05T04:45:15.047Z,9.25
2023-08-05T04:47:42.661Z,16.08
2023-08-05T04:50:10.677Z,8.65
2023-08-05T04:52:38.111Z,7.60
2023-08-05T04:55:12.543Z,11.40
2023-08-05T04:57:40.024Z,7.65
2023-08-05T05:00:08.032Z,8.20
2023-08-05T05:02:35.498Z,7.05
2023-08-05T05:05:04.218Z,6.82
2023-08-05T05:07:31.803Z,10.13
2023-08-05T05:09:59.456Z,6.43
2023-08-05T05:12:26.845Z,6.57
2023-08-05T05:14:54.505Z,11.13
2023-08-05T05:17:22.815Z,8.27
2023-08-05T05:19:50.765Z,7.25
2023-08-05T05:22:18.676Z,9.00
2023-08-05T05:24:46.936Z,6.93
2023-08-05T05:27:19.067Z,4.68
2023-08-05T05:29:47.082Z,7.40
2023-08-05T05:32:14.453Z,4.85
2023-08-05T05:34:42.125Z,5.47
2023-08-05T05:37:09.657Z,7.35
2023-08-05T05:39:37.342Z,5.07
2023-08-05T05:42:04.868Z,10.00
2023-08-05T05:44:32.612Z,11.82
2023-08-05T05:46:59.974Z,10.70
2023-08-05T05:49:29.011Z,6.18
2023-08-05T05:51:56.463Z,8.55
2023-08-05T05:54:24.265Z,7.97
2023-08-05T05:56:52.008Z,8.43
2023-08-05T05:59:19.886Z,6.22
2023-08-05T06:01:47.249Z,6.05
2023-08-05T06:04:15.273Z,7.20
2023-08-05T06:06:42.731Z,6.70
2023-08-05T06:09:10.466Z,9.25
2023-08-05T06:11:37.855Z,11.00
2023-08-05T06:14:06.515Z,6.35
2023-08-05T06:16:35.616Z,7.18
2023-08-05T06:19:04.924Z,5.95
2023-08-05T06:21:32.335Z,6.85
2023-08-05T06:24:00.041Z,4.30
2023-08-05T06:26:27.792Z,5.25
2023-08-05T06:28:55.455Z,8.10
2023-08-05T06:31:22.902Z,5.88
2023-08-05T06:33:50.621Z,3.55
2023-08-05T06:36:18.047Z,3.33
2023-08-05T06:38:45.807Z,3.53
2023-08-05T06:41:13.127Z,4.07
2023-08-05T06:43:40.765Z,4.03
2023-08-05T06:46:08.139Z,4.32
2023-08-05T06:48:35.783Z,2.03
2023-08-05T06:51:03.149Z,3.75
2023-08-05T06:53:30.866Z,4.47
2023-08-05T06:56:02.379Z,4.55
2023-08-05T06:58:30.065Z,3.65
2023-08-05T07:00:57.449Z,3.10
2023-08-05T07:03:26.446Z,6.90
2023-08-05T07:05:57.527Z,6.38
2023-08-05T07:08:26.864Z,3.25
2023-08-05T07:10:55.457Z,6.88
2023-08-05T07:13:23.179Z,5.90
2023-08-05T07:15:50.577Z,3.95
2023-08-05T07:18:18.575Z,6.13
2023-08-05T07:20:47.340Z,4.80
2023-08-05T07:23:14.993Z,3.63
2023-08-05T07:25:42.380Z,6.60
2023-08-05T07:28:10.046Z,4.32
2023-08-05T07:30:37.501Z,4.53
2023-08-05T07:33:12.937Z,4.07
2023-08-05T07:35:40.411Z,4.03
2023-08-05T07:38:11.348Z,4.47
2023-08-05T07:40:40.227Z,3.83
2023-08-05T07:43:10.227Z,2.00
2023-08-05T07:45:37.920Z,4.68
2023-08-05T07:48:11.050Z,5.10
2023-08-05T07:50:38.396Z,4.47
2023-08-05T07:53:06.683Z,4.00
2023-08-05T07:55:36.203Z,5.72
2023-08-05T07:58:05.746Z,2.92
2023-08-05T08:00:34.446Z,2.97
2023-08-05T08:03:02.130Z,3.50
2023-08-05T08:05:30.154Z,4.50
2023-08-05T08:07:58.061Z,3.38
2023-08-05T08:10:26.439Z,5.28
2023-08-05T08:12:54.640Z,3.30
2023-08-05T08:15:22.316Z,2.92
2023-08-05T08:17:50.116Z,3.55
2023-08-05T08:20:17.592Z,4.60
2023-08-05T08:22:45.295Z,3.97
2023-08-05T08:25:12.668Z,4.85
2023-08-05T08:27:40.314Z,5.07
2023-08-05T08:30:08.002Z,2.83
2023-08-05T08:32:36.012Z,4.60
2023-08-05T08:35:04.026Z,2.42
2023-08-05T08:37:31.682Z,4.30
2023-08-05T08:39:59.044Z,6.72
2023-08-05T08:42:27.815Z,2.38
2023-08-05T08:44:55.512Z,2.58
2023-08-05T08:47:24.831Z,2.33
2023-08-05T08:49:54.464Z,2.70
2023-08-05T08:52:22.844Z,2.50
2023-08-05T08:54:52.152Z,3.80
2023-08-05T08:57:19.932Z,2.90
2023-08-05T08:59:48.301Z,3.25
2023-08-05T09:02:26.086Z,3.38
2023-08-05T09:04:54.649Z,3.05
2023-08-05T09:07:28.333Z,4.25
2023-08-05T09:09:55.746Z,4.85
2023-08-05T09:12:23.373Z,3.85
2023-08-05T09:14:57.160Z,3.20
2023-08-05T09:17:24.836Z,3.33
2023-08-05T09:19:52.168Z,3.42
2023-08-05T09:22:19.800Z,2.75
2023-08-05T09:24:47.147Z,4.32
2023-08-05T09:27:14.775Z,2.33
2023-08-05T09:29:42.143Z,2.05
2023-08-05T09:32:09.802Z,3.58
2023-08-05T09:34:38.691Z,2.13
2023-08-05T09:37:07.908Z,4.88
2023-08-05T09:39:49.115Z,2.78
2023-08-05T09:42:20.209Z,5.20
2023-08-05T09:44:48.261Z,4.15
2023-08-05T09:47:19.202Z,3.28
2023-08-05T09:49:52.368Z,3.95
2023-08-05T09:52:22.258Z,5.35
2023-08-05T09:55:01.010Z,2.03
2023-08-05T09:57:29.612Z,2.38
2023-08-05T09:59:59.338Z,2.13
2023-08-05T10:02:27.250Z,3.88
2023-08-05T10:04:55.765Z,3.78
2023-08-05T10:07:24.424Z,2.58
2023-08-05T10:09:52.298Z,3.33
2023-08-05T10:12:24.510Z,6.03
2023-08-05T10:14:52.585Z,4.67
2023-08-05T10:17:20.587Z,2.97
2023-08-05T10:19:48.959Z,4.25
2023-08-05T10:22:22.117Z,2.63
2023-08-05T10:27:17.068Z,4.18
2023-08-05T10:29:54.053Z,2.80
2023-08-05T10:32:33.456Z,3.75
2023-08-05T10:35:19.540Z,3.97
2023-08-05T10:37:50.415Z,6.15
2023-08-05T10:40:36.328Z,6.35
2023-08-05T10:43:03.993Z,3.92
2023-08-05T10:45:31.325Z,5.32
2023-08-05T10:47:59.037Z,5.53
2023-08-05T10:50:28.022Z,3.45
2023-08-05T10:52:55.759Z,3.90
2023-08-05T10:55:27.686Z,4.53
2023-08-05T10:57:55.843Z,5.85
2023-08-05T11:00:24.456Z,6.50
2023-08-05T11:03:12.302Z,5.57
2023-08-05T11:05:39.813Z,4.10
2023-08-05T11:08:08.158Z,8.55
2023-08-05T11:10:35.875Z,3.25
2023-08-05T11:13:04.013Z,3.97
2023-08-05T11:15:31.377Z,3.03
2023-08-05T11:17:59.061Z,3.13
2023-08-05T11:20:33.101Z,7.55
2023-08-05T11:23:01.347Z,2.83
2023-08-05T11:25:28.785Z,4.75
2023-08-05T11:27:57.123Z,2.72
2023-08-05T11:30:24.519Z,3.05
2023-08-05T11:32:52.222Z,4.95
2023-08-05T11:35:19.679Z,2.85
2023-08-05T11:37:47.352Z,1.90
2023-08-05T11:40:14.784Z,2.25
2023-08-05T11:42:42.633Z,3.28
2023-08-05T11:45:13.666Z,3.15
2023-08-05T11:47:42.083Z,2.35
2023-08-05T11:50:10.422Z,4.60
2023-08-05T11:52:40.913Z,8.80
2023-08-05T11:55:08.997Z,2.85
2023-08-05T11:57:36.877Z,5.40
2023-08-05T12:00:05.956Z,4.45
2023-08-05T12:02:35.572Z,3.80
2023-08-05T12:05:05.974Z,3.85
2023-08-05T12:07:41.009Z,1.98
2023-08-05T12:10:09.987Z,4.15
2023-08-05T12:12:38.373Z,3.88
2023-08-05T12:15:12.293Z,5.25
2023-08-05T12:17:40.827Z,5.60
2023-08-05T12:20:11.445Z,4.70
2023-08-05T12:22:39.203Z,3.35
2023-08-05T12:25:06.883Z,3.53
2023-08-05T12:27:34.540Z,3.15
2023-08-05T12:30:01.997Z,2.75
2023-08-05T12:32:29.789Z,3.47
2023-08-05T12:34:57.175Z,3.13
2023-08-05T12:37:24.810Z,7.00
2023-08-05T12:39:52.124Z,9.23
2023-08-05T12:42:19.765Z,4.18
2023-08-05T12:44:47.197Z,6.93
2023-08-05T12:47:15.242Z,3.13
2023-08-05T12:49:44.142Z,5.40
2023-08-05T12:52:11.865Z,3.83
2023-08-05T12:54:39.302Z,7.40
2023-08-05T12:57:06.976Z,2.35
2023-08-05T12:59:34.436Z,2.33
2023-08-05T13:02:02.197Z,5.28
2023-08-05T13:04:29.601Z,8.07
2023-08-05T13:06:57.428Z,9.18
2023-08-05T13:09:24.860Z,5.75
2023-08-05T13:11:52.769Z,5.47
2023-08-05T13:14:20.337Z,2.67
2023-08-05T13:16:48.049Z,7.50
2023-08-05T13:19:17.668Z,4.32
2023-08-05T13:21:45.389Z,2.80
2023-08-05T13:24:12.819Z,5.38
2023-08-05T13:26:40.518Z,4.97
2023-08-05T13:29:07.912Z,3.20
2023-08-05T13:31:36.435Z,4.72
2023-08-05T13:34:04.021Z,4.15
2023-08-05T13:36:31.652Z,3.22
2023-08-05T13:38:59.069Z,5.05
2023-08-05T13:41:26.753Z,5.00
2023-08-05T13:43:54.493Z,4.72
2023-08-05T13:46:22.217Z,2.75
2023-08-05T13:48:49.651Z,3.65
2023-08-05T13:51:17.313Z,3.88
2023-08-05T13:53:44.824Z,4.10
2023-08-05T13:56:12.529Z,4.50
2023-08-05T13:58:39.896Z,3.25
2023-08-05T14:01:17.982Z,6.38
2023-08-05T14:03:45.452Z,8.77
2023-08-05T14:06:13.692Z,4.60
2023-08-05T14:08:41.050Z,6.85
2023-08-05T14:11:08.740Z,4.32
2023-08-05T14:13:36.258Z,3.97
2023-08-05T14:16:04.375Z,3.15
2023-08-05T14:18:31.779Z,4.55
2023-08-05T14:20:59.624Z,7.05
2023-08-05T14:23:27.051Z,4.63
2023-08-05T14:25:54.790Z,4.72
2023-08-05T14:28:23.514Z,3.97
2023-08-05T14:30:51.264Z,10.07
2023-08-05T14:33:18.718Z,10.13
2023-08-05T14:35:46.387Z,4.95
2023-08-05T14:38:13.816Z,3.90
2023-08-05T14:40:41.538Z,2.22
2023-08-05T14:43:09.335Z,3.20
2023-08-05T14:45:43.397Z,5.28
2023-08-05T14:48:11.017Z,5.88
2023-08-05T14:50:39.309Z,4.65
2023-08-05T14:53:07.346Z,5.22
2023-08-05T14:55:35.130Z,5.00
2023-08-05T14:58:02.575Z,6.25
2023-08-05T15:00:30.775Z,3.63
2023-08-05T15:02:58.388Z,1.90
2023-08-05T15:05:26.497Z,5.93
2023-08-05T15:07:53.966Z,7.25
2023-08-05T15:10:22.334Z,5.05
2023-08-05T15:12:49.733Z,4.07
2023-08-05T15:15:17.449Z,6.80
2023-08-05T15:17:44.956Z,5.38
2023-08-05T15:20:12.913Z,4.10
2023-08-05T15:22:40.562Z,6.82
2023-08-05T15:25:08.434Z,3.25
2023-08-05T15:27:36.013Z,4.22
2023-08-05T15:30:11.217Z,7.70
2023-08-05T15:32:39.458Z,3.80
2023-08-05T15:35:09.196Z,4.95
2023-08-05T15:37:36.624Z,3.97
2023-08-05T15:40:04.392Z,5.15
2023-08-05T15:42:31.869Z,7.40
2023-08-05T15:44:59.798Z,4.07
2023-08-05T15:47:27.320Z,5.72
2023-08-05T15:49:55.054Z,5.63
2023-08-05T15:52:22.484Z,3.85
2023-08-05T15:54:51.933Z,5.07
2023-08-05T15:57:19.326Z,6.05
2023-08-05T15:59:47.226Z,6.60
2023-08-05T16:02:14.578Z,9.52
2023-08-05T16:04:42.439Z,4.32
2023-08-05T16:07:10.057Z,5.00
2023-08-05T16:09:37.745Z,4.80
2023-08-05T16:12:05.283Z,4.60
2023-08-05T16:14:32.944Z,6.32
2023-08-05T16:17:00.338Z,9.88
2023-08-05T16:19:28.019Z,4.95
2023-08-05T16:21:55.379Z,4.10
2023-08-05T16:24:23.741Z,6.85
2023-08-05T16:26:51.093Z,5.68
2023-08-05T16:29:20.680Z,5.70
2023-08-05T16:31:48.645Z,4.43
2023-08-05T16:34:16.401Z,5.13
2023-08-05T16:36:43.746Z,6.43
2023-08-05T16:39:11.415Z,6.03
2023-08-05T16:41:38.805Z,7.20
2023-08-05T16:44:07.772Z,6.65
2023-08-05T16:46:47.926Z,6.35
2023-08-05T16:49:16.487Z,8.20
2023-08-05T16:51:43.813Z,5.53
2023-08-05T16:54:11.590Z,6.57
2023-08-05T16:56:38.981Z,8.07
2023-08-05T16:59:07.904Z,7.40
2023-08-05T17:01:35.508Z,6.13
2023-08-05T17:04:03.395Z,7.60
2023-08-05T17:06:30.834Z,8.77
2023-08-05T17:08:58.526Z,7.72
2023-08-05T17:11:25.920Z,7.72
2023-08-05T17:13:53.570Z,6.53
2023-08-05T17:16:21.067Z,8.48
2023-08-05T17:18:48.760Z,4.10
2023-08-05T17:21:16.147Z,7.60
2023-08-05T17:23:45.391Z,8.18
2023-08-05T17:26:12.835Z,10.95
2023-08-05T17:28:40.528Z,7.00
2023-08-05T17:31:07.895Z,12.00
2023-08-05T17:33:35.575Z,5.88
2023-08-05T17:36:02.955Z,9.23
2023-08-05T17:38:30.602Z,7.53
2023-08-05T17:40:57.971Z,7.53
2023-08-05T17:43:25.586Z,4.10
2023-08-05T17:45:59.896Z,7.85
2023-08-05T17:48:27.743Z,7.22
2023-08-05T17:50:59.011Z,6.07
2023-08-05T17:53:26.922Z,5.40
2023-08-05T17:55:54.399Z,7.30
2023-08-05T17:58:22.153Z,6.85
2023-08-05T18:00:49.692Z,18.58
2023-08-05T18:03:17.406Z,9.82
2023-08-05T18:05:44.810Z,13.20
2023-08-05T18:08:13.216Z,14.55
2023-08-05T18:10:40.743Z,13.10
2023-08-05T18:13:08.380Z,13.73
2023-08-05T18:15:35.768Z,11.00
2023-08-05T18:18:03.518Z,9.52
2023-08-05T18:20:34.083Z,11.32
2023-08-05T18:23:01.871Z,13.23
2023-08-05T18:25:32.226Z,14.57
2023-08-05T18:27:59.860Z,14.27
2023-08-05T18:30:28.252Z,16.90
2023-08-05T18:32:56.077Z,14.90
2023-08-05T18:35:24.027Z,14.55
2023-08-05T18:37:51.872Z,8.23
2023-08-05T18:40:20.215Z,5.30
2023-08-05T18:42:48.032Z,8.23
2023-08-05T18:45:15.450Z,10.70
2023-08-05T18:47:43.150Z,10.40
2023-08-05T18:50:10.851Z,6.65
2023-08-05T18:52:38.522Z,11.63
2023-08-05T18:55:06.136Z,12.18
2023-08-05T18:57:33.748Z,12.80
2023-08-05T19:00:04.607Z,12.55
2023-08-05T19:02:32.298Z,8.50
2023-08-05T19:04:59.737Z,9.13
2023-08-05T19:07:27.522Z,11.30
2023-08-05T19:09:55.095Z,13.70
2023-08-05T19:12:22.725Z,10.52
2023-08-05T19:14:50.144Z,9.70
2023-08-05T19:17:18.107Z,13.52
2023-08-05T19:19:45.463Z,9.48
2023-08-05T19:22:13.073Z,13.90
2023-08-05T19:24:40.438Z,23.20
2023-08-05T19:27:08.180Z,14.05
2023-08-05T19:29:35.619Z,16.05
2023-08-05T19:32:03.293Z,29.30
2023-08-05T19:34:30.659Z,10.00
2023-08-05T19:36:58.281Z,11.38
2023-08-05T19:39:25.732Z,12.85
2023-08-05T19:41:53.553Z,7.55
2023-08-05T19:44:21.058Z,12.05
2023-08-05T19:46:48.803Z,9.02
2023-08-05T19:49:16.323Z,6.28
2023-08-05T19:51:44.059Z,8.10
2023-08-05T19:54:12.121Z,15.18
2023-08-05T19:56:40.031Z,9.65
2023-08-05T19:59:07.394Z,8.38
2023-08-05T20:01:35.146Z,9.23
2023-08-05T20:04:02.514Z,9.40
2023-08-05T20:06:30.196Z,15.73
2023-08-05T20:08:57.597Z,12.50
2023-08-05T20:11:25.262Z,13.82
2023-08-05T20:13:52.601Z,9.10
2023-08-05T20:16:20.459Z,11.65
2023-08-05T20:18:47.814Z,8.00
2023-08-05T20:21:15.510Z,11.73
2023-08-05T20:23:42.866Z,9.20
2023-08-05T20:26:11.010Z,8.10
2023-08-05T20:28:38.603Z,7.07
2023-08-05T20:31:06.400Z,8.40
2023-08-05T20:33:33.895Z,7.85
2023-08-05T20:36:02.100Z,8.07
2023-08-05T20:38:29.556Z,9.90
2023-08-05T20:40:57.298Z,10.00
2023-08-05T20:43:24.756Z,10.55
2023-08-05T20:45:54.454Z,8.57
2023-08-05T20:48:22.013Z,7.72
2023-08-05T20:50:56.164Z,7.35
2023-08-05T20:53:23.707Z,11.43
2023-08-05T20:55:51.907Z,17.48
2023-08-05T20:58:19.301Z,8.27
2023-08-05T21:00:46.976Z,8.07
2023-08-05T21:03:14.353Z,8.75
2023-08-05T21:08:25.385Z,14.18
2023-08-05T21:11:03.075Z,12.65
2023-08-05T21:13:30.427Z,10.65
2023-08-05T21:15:58.114Z,11.13
2023-08-05T21:18:25.560Z,15.65
2023-08-05T21:20:53.280Z,9.05
2023-08-05T21:23:20.717Z,6.65
2023-08-05T21:25:48.599Z,8.25
2023-08-05T21:28:15.965Z,7.13
2023-08-05T21:30:43.762Z,8.48
2023-08-05T21:33:11.697Z,5.93
2023-08-05T21:35:40.924Z,6.82
2023-08-05T21:38:08.321Z,4.75
2023-08-05T21:40:37.670Z,4.53
2023-08-05T21:43:05.540Z,5.55
2023-08-05T21:45:33.308Z,6.32
2023-08-05T21:48:00.627Z,5.65
2023-08-05T21:50:28.279Z,9.63
2023-08-05T21:52:55.645Z,5.63
2023-08-05T21:55:24.910Z,5.75
2023-08-05T21:57:52.248Z,4.13
2023-08-05T22:00:20.745Z,4.07
2023-08-05T22:02:48.268Z,5.45
2023-08-05T22:05:16.665Z,5.95
2023-08-05T22:07:44.210Z,5.45
2023-08-05T22:10:11.814Z,6.28
2023-08-05T22:12:39.207Z,6.85
2023-08-05T22:15:07.090Z,6.93
2023-08-05T22:17:34.578Z,6.88
2023-08-05T22:20:02.710Z,5.97
2023-08-05T22:22:30.137Z,9.02
2023-08-05T22:24:57.864Z,8.48
2023-08-05T22:27:25.279Z,5.93
2023-08-05T22:29:53.448Z,6.15
2023-08-05T22:32:20.888Z,9.90
2023-08-05T22:34:48.564Z,7.88
2023-08-05T22:37:15.932Z,8.88
2023-08-05T22:39:43.643Z,6.20
2023-08-05T22:42:11.021Z,11.00
2023-08-05T22:44:38.731Z,5.90
2023-08-05T22:47:06.284Z,11.30
2023-08-05T22:49:33.940Z,13.13
2023-08-05T22:52:01.317Z,11.70
2023-08-05T22:54:29.200Z,9.90
2023-08-05T22:56:56.708Z,10.50
2023-08-05T22:59:24.365Z,14.93
2023-08-05T23:01:51.941Z,11.07
2023-08-05T23:04:21.167Z,12.70
2023-08-05T23:06:48.586Z,8.48
2023-08-05T23:09:16.312Z,10.52
2023-08-05T23:11:43.725Z,18.95
2023-08-05T23:14:11.389Z,11.27
2023-08-05T23:16:38.781Z,24.98
2023-08-05T23:19:07.109Z,12.18
2023-08-05T23:21:34.484Z,15.63
2023-08-05T23:24:02.142Z,17.15
2023-08-05T23:26:29.479Z,11.55
2023-08-05T23:28:59.380Z,9.15
2023-08-05T23:31:26.907Z,7.82
2023-08-05T23:33:54.662Z,5.93
2023-08-05T23:36:22.069Z,11.43
2023-08-05T23:38:49.753Z,7.05
2023-08-05T23:41:17.106Z,5.68
2023-08-05T23:43:45.876Z,7.72
2023-08-05T23:46:14.013Z,8.43
2023-08-05T23:48:41.852Z,6.82
2023-08-05T23:51:09.239Z,8.13
2023-08-05T23:53:36.990Z,12.35
2023-08-05T23:56:04.417Z,7.68
2023-08-05T23:58:32.084Z,13.55
